createdAt,value
2019-04-07T00:02:09.445Z,23.30
2019-04-07T00:07:14.745Z,24.87
2019-04-07T00:12:19.445Z,24.03
2019-04-07T00:17:24.161Z,22.80
2019-04-07T00:22:28.185Z,25.90
2019-04-07T00:27:33.390Z,22.70
2019-04-07T00:32:37.283Z,20.80
2019-04-07T00:37:41.785Z,23.00
2019-04-07T00:42:46.249Z,25.30
2019-04-07T00:47:50.575Z,22.30
2019-04-07T00:52:55.398Z,20.83
2019-04-07T00:58:00.358Z,21.40
2019-04-07T01:03:05.351Z,23.70
2019-04-07T01:08:09.619Z,19.90
2019-04-07T01:13:14.517Z,23.27
2019-04-07T01:18:18.850Z,22.30
2019-04-07T01:23:23.510Z,27.67
2019-04-07T01:28:27.627Z,24.57
2019-04-07T01:33:32.435Z,21.13
2019-04-07T01:38:37.850Z,24.27
2019-04-07T01:43:48.177Z,22.67
2019-04-07T01:49:18.411Z,26.93
2019-04-07T01:54:38.481Z,26.73
2019-04-07T02:00:17.408Z,25.80
2019-04-07T02:05:59.204Z,21.17
2019-04-07T02:11:35.755Z,22.30
2019-04-07T02:16:47.219Z,21.40
2019-04-07T02:22:10.203Z,23.20
2019-04-07T02:27:33.589Z,23.70
2019-04-07T02:32:58.125Z,24.53
2019-04-07T02:38:31.530Z,20.33
2019-04-07T02:43:53.965Z,26.40
2019-04-07T02:49:24.164Z,25.50
2019-04-07T02:54:50.444Z,20.77
2019-04-07T03:00:25.575Z,23.13
2019-04-07T03:05:46.155Z,26.23
2019-04-07T03:11:08.158Z,24.37
2019-04-07T03:16:44.788Z,22.97
2019-04-07T03:21:59.602Z,25.17
2019-04-07T03:27:12.375Z,22.23
2019-04-07T03:32:40.490Z,24.20
2019-04-07T03:38:06.552Z,25.63
2019-04-07T03:43:26.786Z,25.37
2019-04-07T03:48:38.419Z,26.50
2019-04-07T03:54:00.664Z,26.53
2019-04-07T03:59:23.280Z,27.57
2019-04-07T04:04:36.236Z,26.00
2019-04-07T04:09:58.292Z,27.23
2019-04-07T04:15:34.286Z,27.90
2019-04-07T04:20:38.840Z,28.07
2019-04-07T04:25:43.177Z,30.00
2019-04-07T04:30:48.345Z,28.83
2019-04-07T04:35:53.748Z,28.60
2019-04-07T04:40:58.613Z,28.07
2019-04-07T04:46:03.192Z,28.73
2019-04-07T04:51:07.261Z,32.33
2019-04-07T04:56:12.084Z,28.57
2019-04-07T05:01:16.439Z,32.10
2019-04-07T05:06:21.567Z,31.73
2019-04-07T05:11:26.107Z,34.50
2019-04-07T05:16:30.760Z,28.73
2019-04-07T05:21:35.142Z,33.13
2019-04-07T05:26:39.702Z,35.77
2019-04-07T05:31:44.831Z,30.77
2019-04-07T05:36:48.939Z,32.33
2019-04-07T05:41:53.646Z,34.63
2019-04-07T05:46:58.710Z,30.67
2019-04-07T05:52:05.591Z,29.87
2019-04-07T05:57:09.723Z,32.80
2019-04-07T06:02:14.397Z,29.80
2019-04-07T06:07:19.065Z,35.13
2019-04-07T06:12:23.592Z,31.00
2019-04-07T06:17:28.485Z,28.53
2019-04-07T06:22:32.851Z,34.67
2019-04-07T06:27:38.287Z,29.47
2019-04-07T06:32:43.960Z,31.40
2019-04-07T06:37:49.063Z,32.60
2019-04-07T06:42:53.417Z,34.60
2019-04-07T06:48:01.606Z,29.90
2019-04-07T06:53:30.920Z,29.03
2019-04-07T06:58:51.476Z,31.37
2019-04-07T07:04:14.000Z,30.10
2019-04-07T07:09:43.816Z,27.30
2019-04-07T07:15:03.640Z,36.33
2019-04-07T07:20:31.226Z,30.97
2019-04-07T07:25:36.361Z,32.20
2019-04-07T07:30:40.512Z,31.73
2019-04-07T07:35:48.204Z,30.03
2019-04-07T07:40:51.443Z,30.63
2019-04-07T07:45:56.607Z,30.33
2019-04-07T07:51:01.261Z,32.23
2019-04-07T07:56:10.609Z,35.10
2019-04-07T08:01:13.862Z,29.33
2019-04-07T08:06:18.466Z,29.63
2019-04-07T08:11:22.867Z,30.10
2019-04-07T08:16:29.372Z,29.70
2019-04-07T08:21:32.738Z,23.15
2019-04-07T08:26:37.120Z,31.90
2019-04-07T08:31:41.448Z,30.00
2019-04-07T08:36:46.341Z,23.70
2019-04-07T08:41:51.829Z,29.70
2019-04-07T08:46:58.000Z,31.10
2019-04-07T08:52:07.996Z,27.00
2019-04-07T08:57:09.617Z,30.03
2019-04-07T09:02:14.797Z,23.20
2019-04-07T09:07:21.162Z,20.43
2019-04-07T09:12:28.890Z,25.87
2019-04-07T09:17:44.482Z,32.60
2019-04-07T09:23:20.142Z,19.23
2019-04-07T09:29:01.806Z,18.67
2019-04-07T09:34:34.484Z,29.67
2019-04-07T09:40:00.517Z,18.03
2019-04-07T09:45:21.229Z,18.87
2019-04-07T09:50:40.817Z,22.03
2019-04-07T09:56:09.830Z,19.50
2019-04-07T10:01:27.756Z,19.90
2019-04-07T10:06:41.399Z,15.00
2019-04-07T10:12:11.428Z,18.20
2019-04-07T10:17:23.283Z,14.90
2019-04-07T10:22:34.326Z,18.50
2019-04-07T10:27:56.699Z,16.97
2019-04-07T10:33:10.359Z,15.10
2019-04-07T10:38:32.793Z,16.43
2019-04-07T10:43:54.140Z,16.43
2019-04-07T10:49:16.968Z,13.77
2019-04-07T10:54:31.425Z,17.17
2019-04-07T10:59:42.594Z,14.60
2019-04-07T11:04:56.458Z,15.67
2019-04-07T11:10:32.610Z,15.27
2019-04-07T11:15:54.144Z,15.23
2019-04-07T11:21:16.608Z,16.20
2019-04-07T11:26:30.076Z,18.00
2019-04-07T11:31:38.816Z,17.10
2019-04-07T11:37:04.946Z,15.20
2019-04-07T11:42:25.121Z,23.07
2019-04-07T11:47:48.059Z,22.70
2019-04-07T11:52:58.142Z,16.63
2019-04-07T11:58:22.976Z,20.63
2019-04-07T12:04:00.051Z,19.50
2019-04-07T12:09:24.498Z,20.27
2019-04-07T12:14:56.718Z,20.23
2019-04-07T12:20:14.167Z,23.90
2019-04-07T12:25:42.892Z,20.30
2019-04-07T12:30:56.908Z,21.97
2019-04-07T12:36:20.572Z,23.23
2019-04-07T12:41:35.763Z,24.30
2019-04-07T12:47:07.094Z,20.47
2019-04-07T12:52:42.319Z,20.30
2019-04-07T12:58:09.599Z,23.37
2019-04-07T13:03:20.008Z,24.80
2019-04-07T13:08:56.018Z,27.63
2019-04-07T13:14:23.377Z,21.00
2019-04-07T13:19:53.444Z,20.60
2019-04-07T13:25:22.821Z,24.53
2019-04-07T13:30:33.624Z,25.20
2019-04-07T13:35:56.304Z,24.40
2019-04-07T13:41:18.832Z,23.80
2019-04-07T13:46:37.360Z,23.23
2019-04-07T13:52:06.435Z,24.30
2019-04-07T13:57:27.609Z,24.57
2019-04-07T14:02:50.052Z,20.90
2019-04-07T14:08:12.160Z,26.47
2019-04-07T14:13:40.741Z,20.70
2019-04-07T14:19:03.690Z,20.20
2019-04-07T14:24:25.809Z,26.27
2019-04-07T14:29:54.925Z,21.70
2019-04-07T14:35:36.990Z,23.30
2019-04-07T14:40:51.160Z,22.87
2019-04-07T14:46:14.426Z,24.57
2019-04-07T14:51:36.460Z,26.90
2019-04-07T14:56:59.378Z,20.00
2019-04-07T15:02:04.212Z,25.43
2019-04-07T15:07:21.683Z,23.83
2019-04-07T15:12:32.080Z,24.80
2019-04-07T15:17:37.091Z,24.23
2019-04-07T15:22:43.983Z,20.70
2019-04-07T15:27:47.715Z,24.93
2019-04-07T15:32:52.196Z,25.57
2019-04-07T15:37:57.083Z,21.40
2019-04-07T15:43:04.373Z,30.23
2019-04-07T15:48:08.281Z,28.70
2019-04-07T15:53:14.966Z,22.13
2019-04-07T15:58:18.853Z,21.47
2019-04-07T16:03:23.710Z,28.10
2019-04-07T16:08:29.524Z,23.53
2019-04-07T16:13:34.266Z,24.13
2019-04-07T16:18:40.891Z,31.93
2019-04-07T16:23:48.636Z,31.10
2019-04-07T16:28:51.987Z,30.67
2019-04-07T16:33:56.742Z,27.30
2019-04-07T16:39:02.319Z,30.97
2019-04-07T16:44:09.272Z,28.53
2019-04-07T16:49:14.072Z,26.77
2019-04-07T16:54:19.938Z,28.40
2019-04-07T16:59:25.319Z,31.20
2019-04-07T17:04:30.055Z,30.13
2019-04-07T17:09:36.362Z,31.40
2019-04-07T17:14:40.589Z,32.63
2019-04-07T17:19:45.740Z,29.80
2019-04-07T17:24:50.567Z,35.27
2019-04-07T17:29:55.452Z,28.37
2019-04-07T17:35:00.816Z,28.60
2019-04-07T17:40:13.040Z,29.87
2019-04-07T17:45:35.458Z,24.93
2019-04-07T17:51:09.085Z,31.20
2019-04-07T17:56:32.298Z,26.30
2019-04-07T18:01:59.274Z,27.23
2019-04-07T18:07:30.034Z,28.63
2019-04-07T18:13:02.368Z,29.30
2019-04-07T18:18:26.348Z,29.90
2019-04-07T18:23:56.587Z,23.00
2019-04-07T18:29:29.982Z,25.77
2019-04-07T18:34:49.652Z,25.77
2019-04-07T18:40:27.317Z,28.93
2019-04-07T18:45:54.791Z,29.43
2019-04-07T18:51:25.230Z,22.90
2019-04-07T18:57:04.043Z,22.80
2019-04-07T19:02:26.906Z,25.47
2019-04-07T19:08:09.305Z,24.77
2019-04-07T19:13:24.714Z,26.60
2019-04-07T19:18:32.770Z,26.93
2019-04-07T19:23:47.223Z,24.93
2019-04-07T19:29:11.870Z,25.30
2019-04-07T19:34:44.955Z,22.60
2019-04-07T19:40:04.256Z,18.67
2019-04-07T19:45:30.905Z,24.30
2019-04-07T19:50:57.244Z,22.77
2019-04-07T19:56:35.191Z,19.27
2019-04-07T20:01:59.020Z,21.90
2019-04-07T20:07:13.641Z,21.67
2019-04-07T20:12:25.023Z,22.60
2019-04-07T20:18:00.679Z,22.03
2019-04-07T20:23:28.490Z,24.67
2019-04-07T20:28:37.871Z,19.87
2019-04-07T20:34:04.607Z,22.30
2019-04-07T20:39:12.746Z,21.53
2019-04-07T20:44:57.813Z,22.93
2019-04-07T20:50:12.682Z,22.00
2019-04-07T20:55:37.343Z,23.30
2019-04-07T21:01:17.717Z,21.97
2019-04-07T21:06:30.118Z,19.27
2019-04-07T21:12:06.318Z,21.23
2019-04-07T21:17:19.055Z,20.20
2019-04-07T21:22:43.262Z,22.00
2019-04-07T21:28:06.081Z,24.33
2019-04-07T21:33:25.978Z,21.83
2019-04-07T21:38:39.197Z,21.27
2019-04-07T21:43:58.255Z,21.10
2019-04-07T21:49:22.057Z,22.60
2019-04-07T21:54:48.267Z,22.03
2019-04-07T22:00:19.379Z,21.80
2019-04-07T22:05:39.129Z,22.70
2019-04-07T22:10:43.596Z,23.23
2019-04-07T22:15:54.244Z,22.57
2019-04-07T22:20:55.542Z,22.90
2019-04-07T22:25:59.776Z,20.50
2019-04-07T22:31:04.030Z,27.80
2019-04-07T22:36:13.894Z,25.10
2019-04-07T22:41:14.548Z,25.17
2019-04-07T22:46:24.283Z,20.67
2019-04-07T22:51:25.455Z,23.53
2019-04-07T22:56:30.988Z,22.03
2019-04-07T23:01:35.451Z,22.00
2019-04-07T23:06:40.391Z,23.53
2019-04-07T23:11:46.099Z,24.23
2019-04-07T23:16:50.171Z,23.97
2019-04-07T23:21:55.411Z,23.07
2019-04-07T23:26:59.561Z,22.70
2019-04-07T23:32:04.600Z,23.70
2019-04-07T23:37:10.087Z,21.17
2019-04-07T23:42:14.572Z,26.30
2019-04-07T23:47:19.439Z,24.00
2019-04-07T23:52:23.522Z,21.23
2019-04-07T23:57:27.859Z,22.20
